sensor_id;sensor_type;location;lat;lon;timestamp;pressure;altitude;pressure_sealevel;temperature;humidity
68179;BME280;54998;42.656;23.382;2022-10-29T00:00:24;96027.25;;;7.39;64.41
68179;BME280;54998;42.656;23.382;2022-10-29T00:02:50;96025.06;;;7.33;64.20
68179;BME280;54998;42.656;23.382;2022-10-29T00:05:15;96024.94;;;7.20;64.56
68179;BME280;54998;42.656;23.382;2022-10-29T00:07:40;96025.13;;;7.17;64.83
68179;BME280;54998;42.656;23.382;2022-10-29T00:10:07;96022.75;;;7.14;64.88
68179;BME280;54998;42.656;23.382;2022-10-29T00:12:32;96018.94;;;7.07;65.32
68179;BME280;54998;42.656;23.382;2022-10-29T00:14:58;96015.19;;;7.13;65.48
68179;BME280;54998;42.656;23.382;2022-10-29T00:17:23;96017.03;;;7.25;65.03
68179;BME280;54998;42.656;23.382;2022-10-29T00:19:48;96014.09;;;7.31;64.46
68179;BME280;54998;42.656;23.382;2022-10-29T00:22:14;96013.09;;;7.19;64.71
68179;BME280;54998;42.656;23.382;2022-10-29T00:24:39;96010.66;;;7.18;65.01
68179;BME280;54998;42.656;23.382;2022-10-29T00:27:05;96002.16;;;7.17;64.93
68179;BME280;54998;42.656;23.382;2022-10-29T00:29:30;96002.97;;;7.18;64.98
68179;BME280;54998;42.656;23.382;2022-10-29T00:31:56;96003.97;;;7.15;65.05
68179;BME280;54998;42.656;23.382;2022-10-29T00:34:21;95998.03;;;7.15;64.91
68179;BME280;54998;42.656;23.382;2022-10-29T00:36:47;95991.59;;;7.09;65.26
68179;BME280;54998;42.656;23.382;2022-10-29T00:39:14;96005.09;;;7.11;65.52
68179;BME280;54998;42.656;23.382;2022-10-29T00:41:39;95991.94;;;7.17;65.56
68179;BME280;54998;42.656;23.382;2022-10-29T00:46:48;95991.84;;;7.19;65.33
68179;BME280;54998;42.656;23.382;2022-10-29T00:49:16;95997.97;;;7.16;65.56
68179;BME280;54998;42.656;23.382;2022-10-29T00:51:42;95999.25;;;7.09;65.46
68179;BME280;54998;42.656;23.382;2022-10-29T00:54:10;95987.00;;;7.00;65.87
68179;BME280;54998;42.656;23.382;2022-10-29T00:56:42;95991.50;;;6.96;66.10
68179;BME280;54998;42.656;23.382;2022-10-29T00:59:09;95988.81;;;6.98;66.61
68179;BME280;54998;42.656;23.382;2022-10-29T01:01:35;95985.38;;;6.99;66.35
68179;BME280;54998;42.656;23.382;2022-10-29T01:04:01;95984.09;;;6.92;66.54
68179;BME280;54998;42.656;23.382;2022-10-29T01:06:28;95980.25;;;6.85;66.57
68179;BME280;54998;42.656;23.382;2022-10-29T01:08:54;95984.81;;;6.79;66.77
68179;BME280;54998;42.656;23.382;2022-10-29T01:11:55;95987.44;;;6.78;66.80
68179;BME280;54998;42.656;23.382;2022-10-29T01:17:45;95973.41;;;6.71;67.79
68179;BME280;54998;42.656;23.382;2022-10-29T01:22:40;95979.97;;;6.75;67.67
68179;BME280;54998;42.656;23.382;2022-10-29T01:25:16;95972.94;;;6.78;67.14
68179;BME280;54998;42.656;23.382;2022-10-29T01:34:08;95965.06;;;6.38;68.26
68179;BME280;54998;42.656;23.382;2022-10-29T01:36:43;95965.47;;;6.31;68.99
68179;BME280;54998;42.656;23.382;2022-10-29T01:39:20;95964.91;;;6.26;68.92
68179;BME280;54998;42.656;23.382;2022-10-29T01:41:59;95965.25;;;6.20;69.49
68179;BME280;54998;42.656;23.382;2022-10-29T01:44:36;95962.72;;;6.20;69.07
68179;BME280;54998;42.656;23.382;2022-10-29T01:47:04;95956.25;;;6.14;69.20
68179;BME280;54998;42.656;23.382;2022-10-29T01:49:43;95958.63;;;6.17;69.22
68179;BME280;54998;42.656;23.382;2022-10-29T01:52:12;95957.81;;;6.16;69.53
68179;BME280;54998;42.656;23.382;2022-10-29T01:54:41;95958.69;;;6.15;69.57
68179;BME280;54998;42.656;23.382;2022-10-29T02:00:17;95948.47;;;6.01;69.81
68179;BME280;54998;42.656;23.382;2022-10-29T02:10:29;95952.63;;;6.02;69.54
68179;BME280;54998;42.656;23.382;2022-10-29T02:12:57;95950.03;;;6.04;69.53
68179;BME280;54998;42.656;23.382;2022-10-29T02:15:46;95949.19;;;6.03;69.50
68179;BME280;54998;42.656;23.382;2022-10-29T02:18:13;95944.91;;;6.04;69.67
68179;BME280;54998;42.656;23.382;2022-10-29T02:20:42;95942.28;;;6.05;69.35
68179;BME280;54998;42.656;23.382;2022-10-29T02:23:08;95938.00;;;6.06;69.74
68179;BME280;54998;42.656;23.382;2022-10-29T02:25:34;95938.00;;;6.06;69.50
68179;BME280;54998;42.656;23.382;2022-10-29T02:28:00;95940.63;;;6.04;69.96
68179;BME280;54998;42.656;23.382;2022-10-29T02:30:25;95950.75;;;6.06;70.09
68179;BME280;54998;42.656;23.382;2022-10-29T02:32:50;95948.59;;;6.14;69.54
68179;BME280;54998;42.656;23.382;2022-10-29T02:35:16;95947.53;;;6.18;69.22
68179;BME280;54998;42.656;23.382;2022-10-29T02:37:41;95943.91;;;6.06;68.94
68179;BME280;54998;42.656;23.382;2022-10-29T02:40:07;95943.25;;;6.03;69.15
68179;BME280;54998;42.656;23.382;2022-10-29T02:42:32;95935.63;;;5.87;69.89
68179;BME280;54998;42.656;23.382;2022-10-29T02:44:58;95938.19;;;5.87;69.91
68179;BME280;54998;42.656;23.382;2022-10-29T02:47:23;95937.44;;;5.85;69.64
68179;BME280;54998;42.656;23.382;2022-10-29T02:49:48;95936.97;;;5.78;69.33
68179;BME280;54998;42.656;23.382;2022-10-29T02:52:14;95935.66;;;5.71;69.75
68179;BME280;54998;42.656;23.382;2022-10-29T02:54:39;95931.22;;;5.59;70.20
68179;BME280;54998;42.656;23.382;2022-10-29T02:57:05;95932.63;;;5.48;70.76
68179;BME280;54998;42.656;23.382;2022-10-29T02:59:30;95930.63;;;5.38;71.03
68179;BME280;54998;42.656;23.382;2022-10-29T03:01:56;95935.72;;;5.38;71.65
68179;BME280;54998;42.656;23.382;2022-10-29T03:04:21;95940.00;;;5.37;72.09
68179;BME280;54998;42.656;23.382;2022-10-29T03:06:46;95940.69;;;5.41;71.54
68179;BME280;54998;42.656;23.382;2022-10-29T03:09:12;95934.84;;;5.39;71.80
68179;BME280;54998;42.656;23.382;2022-10-29T03:11:37;95937.97;;;5.44;71.71
68179;BME280;54998;42.656;23.382;2022-10-29T03:14:03;95939.63;;;5.45;71.61
68179;BME280;54998;42.656;23.382;2022-10-29T03:16:28;95936.16;;;5.46;71.62
68179;BME280;54998;42.656;23.382;2022-10-29T03:18:53;95942.31;;;5.42;71.70
68179;BME280;54998;42.656;23.382;2022-10-29T03:21:19;95932.31;;;5.39;71.54
68179;BME280;54998;42.656;23.382;2022-10-29T03:23:44;95936.47;;;5.40;71.56
68179;BME280;54998;42.656;23.382;2022-10-29T03:26:10;95930.41;;;5.42;71.75
68179;BME280;54998;42.656;23.382;2022-10-29T03:28:35;95934.28;;;5.49;71.33
68179;BME280;54998;42.656;23.382;2022-10-29T03:31:01;95931.00;;;5.47;71.52
68179;BME280;54998;42.656;23.382;2022-10-29T03:33:26;95925.41;;;5.41;71.18
68179;BME280;54998;42.656;23.382;2022-10-29T03:35:59;95926.97;;;5.27;71.08
68179;BME280;54998;42.656;23.382;2022-10-29T03:38:25;95931.63;;;5.19;71.66
68179;BME280;54998;42.656;23.382;2022-10-29T03:40:51;95918.66;;;5.08;72.19
68179;BME280;54998;42.656;23.382;2022-10-29T03:43:17;95921.84;;;4.96;72.12
68179;BME280;54998;42.656;23.382;2022-10-29T03:45:43;95911.72;;;4.94;72.61
68179;BME280;54998;42.656;23.382;2022-10-29T03:48:08;95916.19;;;5.06;72.69
68179;BME280;54998;42.656;23.382;2022-10-29T03:50:34;95916.13;;;5.08;72.02
68179;BME280;54998;42.656;23.382;2022-10-29T03:53:00;95915.69;;;5.00;71.48
68179;BME280;54998;42.656;23.382;2022-10-29T03:55:25;95925.50;;;4.90;71.86
68179;BME280;54998;42.656;23.382;2022-10-29T03:57:54;95935.03;;;4.86;71.95
68179;BME280;54998;42.656;23.382;2022-10-29T04:00:19;95922.69;;;4.79;72.09
68179;BME280;54998;42.656;23.382;2022-10-29T04:02:45;95920.41;;;4.74;72.59
68179;BME280;54998;42.656;23.382;2022-10-29T04:05:10;95921.38;;;4.71;73.01
68179;BME280;54998;42.656;23.382;2022-10-29T04:07:35;95921.88;;;4.78;73.02
68179;BME280;54998;42.656;23.382;2022-10-29T04:10:01;95929.50;;;4.78;72.62
68179;BME280;54998;42.656;23.382;2022-10-29T04:12:26;95930.63;;;4.72;73.19
68179;BME280;54998;42.656;23.382;2022-10-29T04:14:51;95930.25;;;4.80;73.44
68179;BME280;54998;42.656;23.382;2022-10-29T04:17:17;95931.69;;;4.86;73.98
68179;BME280;54998;42.656;23.382;2022-10-29T04:19:42;95938.22;;;4.90;73.06
68179;BME280;54998;42.656;23.382;2022-10-29T04:22:08;95929.28;;;4.83;73.23
68179;BME280;54998;42.656;23.382;2022-10-29T04:24:33;95931.97;;;4.80;72.91
68179;BME280;54998;42.656;23.382;2022-10-29T04:26:58;95948.06;;;4.80;73.20
68179;BME280;54998;42.656;23.382;2022-10-29T04:29:24;95938.06;;;4.77;73.04
68179;BME280;54998;42.656;23.382;2022-10-29T04:31:49;95947.63;;;4.72;73.81
68179;BME280;54998;42.656;23.382;2022-10-29T04:34:15;95941.25;;;4.81;73.90
68179;BME280;54998;42.656;23.382;2022-10-29T04:36:40;95945.78;;;4.91;73.42
68179;BME280;54998;42.656;23.382;2022-10-29T04:39:05;95949.97;;;4.92;72.86
68179;BME280;54998;42.656;23.382;2022-10-29T04:41:32;95943.97;;;4.93;73.01
68179;BME280;54998;42.656;23.382;2022-10-29T04:43:57;95950.56;;;4.98;72.83
68179;BME280;54998;42.656;23.382;2022-10-29T04:46:23;95944.66;;;4.97;73.41
68179;BME280;54998;42.656;23.382;2022-10-29T04:48:48;95945.66;;;4.94;73.30
68179;BME280;54998;42.656;23.382;2022-10-29T04:51:21;95952.44;;;4.94;73.74
68179;BME280;54998;42.656;23.382;2022-10-29T04:53:47;95949.88;;;4.94;73.50
68179;BME280;54998;42.656;23.382;2022-10-29T04:56:12;95948.25;;;4.93;74.03
68179;BME280;54998;42.656;23.382;2022-10-29T04:58:38;95951.03;;;4.88;74.19
68179;BME280;54998;42.656;23.382;2022-10-29T05:01:03;95939.94;;;4.89;73.94
68179;BME280;54998;42.656;23.382;2022-10-29T05:03:32;95944.28;;;4.87;74.13
68179;BME280;54998;42.656;23.382;2022-10-29T05:06:00;95940.94;;;4.87;74.33
68179;BME280;54998;42.656;23.382;2022-10-29T05:08:26;95951.19;;;5.19;73.87
68179;BME280;54998;42.656;23.382;2022-10-29T05:10:51;95942.63;;;5.67;72.30
68179;BME280;54998;42.656;23.382;2022-10-29T05:13:16;95951.66;;;6.05;69.83
68179;BME280;54998;42.656;23.382;2022-10-29T05:15:42;95947.22;;;6.08;69.27
68179;BME280;54998;42.656;23.382;2022-10-29T05:18:08;95955.09;;;6.78;67.33
68179;BME280;54998;42.656;23.382;2022-10-29T05:20:34;95950.41;;;7.84;63.43
68179;BME280;54998;42.656;23.382;2022-10-29T05:23:02;95944.19;;;8.94;59.89
68179;BME280;54998;42.656;23.382;2022-10-29T05:25:29;95938.53;;;10.23;56.24
68179;BME280;54998;42.656;23.382;2022-10-29T05:28:06;95947.03;;;11.40;51.96
68179;BME280;54998;42.656;23.382;2022-10-29T05:30:32;95941.25;;;12.67;48.66
68179;BME280;54998;42.656;23.382;2022-10-29T05:32:58;95943.84;;;13.59;45.35
68179;BME280;54998;42.656;23.382;2022-10-29T05:35:24;95939.72;;;14.46;43.66
68179;BME280;54998;42.656;23.382;2022-10-29T05:37:51;95945.63;;;15.42;41.63
68179;BME280;54998;42.656;23.382;2022-10-29T05:40:17;95945.00;;;16.04;39.29
68179;BME280;54998;42.656;23.382;2022-10-29T05:42:42;95955.38;;;16.04;39.13
68179;BME280;54998;42.656;23.382;2022-10-29T05:45:08;95948.72;;;16.19;38.38
68179;BME280;54998;42.656;23.382;2022-10-29T05:47:33;95952.84;;;15.94;38.99
68179;BME280;54998;42.656;23.382;2022-10-29T05:49:59;95958.31;;;16.09;38.74
68179;BME280;54998;42.656;23.382;2022-10-29T05:52:24;95959.34;;;17.14;36.99
68179;BME280;54998;42.656;23.382;2022-10-29T05:54:50;95951.25;;;17.94;35.18
68179;BME280;54998;42.656;23.382;2022-10-29T05:57:15;95950.50;;;18.83;33.43
68179;BME280;54998;42.656;23.382;2022-10-29T05:59:40;95955.66;;;19.72;32.55
68179;BME280;54998;42.656;23.382;2022-10-29T06:02:08;95957.09;;;20.06;31.47
68179;BME280;54998;42.656;23.382;2022-10-29T06:04:33;95953.91;;;20.88;30.21
68179;BME280;54998;42.656;23.382;2022-10-29T06:06:59;95959.25;;;21.09;29.80
68179;BME280;54998;42.656;23.382;2022-10-29T06:09:25;95958.06;;;21.12;29.45
68179;BME280;54998;42.656;23.382;2022-10-29T06:11:50;95961.50;;;21.27;29.15
68179;BME280;54998;42.656;23.382;2022-10-29T06:14:15;95963.16;;;21.43;28.92
68179;BME280;54998;42.656;23.382;2022-10-29T06:16:41;95965.94;;;21.57;28.17
68179;BME280;54998;42.656;23.382;2022-10-29T06:19:06;95964.91;;;19.66;30.77
68179;BME280;54998;42.656;23.382;2022-10-29T06:21:33;95962.69;;;21.40;28.98
68179;BME280;54998;42.656;23.382;2022-10-29T06:23:59;95966.75;;;22.45;27.22
68179;BME280;54998;42.656;23.382;2022-10-29T06:26:25;95967.28;;;22.62;26.32
68179;BME280;54998;42.656;23.382;2022-10-29T06:28:50;95961.81;;;22.56;27.03
68179;BME280;54998;42.656;23.382;2022-10-29T06:31:15;95962.16;;;21.74;28.34
68179;BME280;54998;42.656;23.382;2022-10-29T06:33:41;95956.13;;;22.10;27.27
68179;BME280;54998;42.656;23.382;2022-10-29T06:36:07;95959.09;;;20.04;30.79
68179;BME280;54998;42.656;23.382;2022-10-29T06:38:32;95958.03;;;19.34;31.30
68179;BME280;54998;42.656;23.382;2022-10-29T06:40:57;95963.19;;;17.78;34.39
68179;BME280;54998;42.656;23.382;2022-10-29T06:43:23;95956.09;;;16.68;36.66
68179;BME280;54998;42.656;23.382;2022-10-29T06:45:49;95962.06;;;15.51;39.80
68179;BME280;54998;42.656;23.382;2022-10-29T06:48:14;95963.91;;;16.94;36.95
68179;BME280;54998;42.656;23.382;2022-10-29T06:50:40;95952.78;;;18.45;33.88
68179;BME280;54998;42.656;23.382;2022-10-29T06:53:06;95964.50;;;18.82;33.60
68179;BME280;54998;42.656;23.382;2022-10-29T06:55:34;95958.22;;;20.81;30.42
68179;BME280;54998;42.656;23.382;2022-10-29T06:58:02;95959.31;;;20.86;29.91
68179;BME280;54998;42.656;23.382;2022-10-29T07:00:29;95969.91;;;17.20;35.39
68179;BME280;54998;42.656;23.382;2022-10-29T07:02:54;95962.28;;;19.83;32.06
68179;BME280;54998;42.656;23.382;2022-10-29T07:05:21;95959.53;;;21.59;28.84
68179;BME280;54998;42.656;23.382;2022-10-29T07:07:46;95964.41;;;20.34;30.39
68179;BME280;54998;42.656;23.382;2022-10-29T07:10:12;95959.78;;;22.30;28.64
68179;BME280;54998;42.656;23.382;2022-10-29T07:12:42;95961.13;;;22.69;27.35
68179;BME280;54998;42.656;23.382;2022-10-29T07:15:08;95970.50;;;24.25;25.08
68179;BME280;54998;42.656;23.382;2022-10-29T07:17:33;95968.53;;;25.07;24.39
68179;BME280;54998;42.656;23.382;2022-10-29T07:19:58;95958.47;;;24.84;24.50
68179;BME280;54998;42.656;23.382;2022-10-29T07:22:24;95967.78;;;23.98;25.36
68179;BME280;54998;42.656;23.382;2022-10-29T07:24:49;95967.09;;;23.41;26.10
68179;BME280;54998;42.656;23.382;2022-10-29T07:27:15;95973.72;;;24.27;25.00
68179;BME280;54998;42.656;23.382;2022-10-29T07:29:40;95967.75;;;24.86;24.41
68179;BME280;54998;42.656;23.382;2022-10-29T07:32:05;95974.47;;;26.26;22.83
68179;BME280;54998;42.656;23.382;2022-10-29T07:34:31;95967.38;;;26.26;22.87
68179;BME280;54998;42.656;23.382;2022-10-29T07:36:56;95972.75;;;27.27;21.63
68179;BME280;54998;42.656;23.382;2022-10-29T07:39:22;95969.31;;;27.19;22.13
68179;BME280;54998;42.656;23.382;2022-10-29T07:41:47;95964.47;;;25.44;23.94
68179;BME280;54998;42.656;23.382;2022-10-29T07:44:13;95962.06;;;27.40;21.86
68179;BME280;54998;42.656;23.382;2022-10-29T07:46:38;95956.94;;;27.82;21.29
68179;BME280;54998;42.656;23.382;2022-10-29T07:49:03;95950.00;;;26.25;22.70
68179;BME280;54998;42.656;23.382;2022-10-29T07:51:29;95956.47;;;25.77;23.19
68179;BME280;54998;42.656;23.382;2022-10-29T07:53:54;95954.75;;;26.41;22.54
68179;BME280;54998;42.656;23.382;2022-10-29T07:56:19;95958.06;;;25.92;23.46
68179;BME280;54998;42.656;23.382;2022-10-29T07:58:45;95956.19;;;27.93;20.90
68179;BME280;54998;42.656;23.382;2022-10-29T08:01:10;95957.13;;;28.17;21.10
68179;BME280;54998;42.656;23.382;2022-10-29T08:03:36;95956.97;;;29.08;20.04
68179;BME280;54998;42.656;23.382;2022-10-29T08:06:01;95947.44;;;29.07;19.31
68179;BME280;54998;42.656;23.382;2022-10-29T08:08:26;95953.63;;;28.77;20.31
68179;BME280;54998;42.656;23.382;2022-10-29T08:10:52;95948.56;;;28.99;20.00
68179;BME280;54998;42.656;23.382;2022-10-29T08:13:17;95948.53;;;28.22;20.41
68179;BME280;54998;42.656;23.382;2022-10-29T08:15:44;95941.91;;;29.44;19.45
68179;BME280;54998;42.656;23.382;2022-10-29T08:18:14;95934.13;;;29.37;19.61
68179;BME280;54998;42.656;23.382;2022-10-29T08:20:40;95939.53;;;28.95;19.51
68179;BME280;54998;42.656;23.382;2022-10-29T08:23:05;95933.34;;;28.47;20.37
68179;BME280;54998;42.656;23.382;2022-10-29T08:25:30;95932.78;;;29.75;19.45
68179;BME280;54998;42.656;23.382;2022-10-29T08:27:56;95930.53;;;29.32;19.73
68179;BME280;54998;42.656;23.382;2022-10-29T08:30:22;95934.69;;;29.04;19.56
68179;BME280;54998;42.656;23.382;2022-10-29T08:32:47;95932.13;;;28.20;20.55
68179;BME280;54998;42.656;23.382;2022-10-29T08:35:13;95932.94;;;28.74;20.03
68179;BME280;54998;42.656;23.382;2022-10-29T08:37:43;95931.66;;;28.53;20.87
68179;BME280;54998;42.656;23.382;2022-10-29T08:40:26;95929.09;;;25.98;22.49
68179;BME280;54998;42.656;23.382;2022-10-29T08:43:23;95922.59;;;27.52;21.36
68179;BME280;54998;42.656;23.382;2022-10-29T08:45:54;95921.06;;;28.11;20.86
68179;BME280;54998;42.656;23.382;2022-10-29T08:48:57;95916.78;;;28.29;20.91
68179;BME280;54998;42.656;23.382;2022-10-29T08:51:37;95918.00;;;28.56;20.48
68179;BME280;54998;42.656;23.382;2022-10-29T08:54:04;95908.16;;;29.86;19.53
68179;BME280;54998;42.656;23.382;2022-10-29T08:56:36;95906.19;;;28.59;20.25
68179;BME280;54998;42.656;23.382;2022-10-29T09:01:31;95901.13;;;30.38;18.79
68179;BME280;54998;42.656;23.382;2022-10-29T09:03:56;95900.91;;;30.56;18.62
68179;BME280;54998;42.656;23.382;2022-10-29T09:06:30;95907.22;;;31.06;18.07
68179;BME280;54998;42.656;23.382;2022-10-29T09:12:22;95899.81;;;30.23;19.33
68179;BME280;54998;42.656;23.382;2022-10-29T09:26:03;95887.94;;;28.81;20.50
68179;BME280;54998;42.656;23.382;2022-10-29T09:33:44;95882.47;;;29.58;19.83
68179;BME280;54998;42.656;23.382;2022-10-29T09:36:14;95881.13;;;30.01;19.42
68179;BME280;54998;42.656;23.382;2022-10-29T09:38:50;95875.47;;;30.09;19.28
68179;BME280;54998;42.656;23.382;2022-10-29T09:41:18;95870.84;;;30.17;18.99
68179;BME280;54998;42.656;23.382;2022-10-29T09:46:32;95872.63;;;29.82;19.67
68179;BME280;54998;42.656;23.382;2022-10-29T09:51:53;95864.06;;;30.88;18.79
68179;BME280;54998;42.656;23.382;2022-10-29T09:54:22;95860.28;;;28.18;20.76
68179;BME280;54998;42.656;23.382;2022-10-29T09:56:49;95856.09;;;29.63;20.17
68179;BME280;54998;42.656;23.382;2022-10-29T10:01:56;95845.53;;;28.99;20.64
68179;BME280;54998;42.656;23.382;2022-10-29T10:04:30;95837.84;;;30.75;18.93
68179;BME280;54998;42.656;23.382;2022-10-29T10:07:09;95841.50;;;30.52;18.78
68179;BME280;54998;42.656;23.382;2022-10-29T10:12:21;95828.00;;;31.31;18.15
68179;BME280;54998;42.656;23.382;2022-10-29T10:14:47;95826.94;;;29.87;19.93
68179;BME280;54998;42.656;23.382;2022-10-29T10:17:13;95820.56;;;30.50;18.97
68179;BME280;54998;42.656;23.382;2022-10-29T10:19:43;95817.78;;;30.79;18.98
68179;BME280;54998;42.656;23.382;2022-10-29T10:22:20;95814.06;;;28.27;21.51
68179;BME280;54998;42.656;23.382;2022-10-29T10:24:46;95803.97;;;30.77;18.85
68179;BME280;54998;42.656;23.382;2022-10-29T10:29:48;95794.78;;;30.63;19.27
68179;BME280;54998;42.656;23.382;2022-10-29T10:32:30;95790.47;;;29.08;20.39
68179;BME280;54998;42.656;23.382;2022-10-29T10:34:55;95785.66;;;30.37;19.32
68179;BME280;54998;42.656;23.382;2022-10-29T10:37:21;95782.72;;;31.87;17.82
68179;BME280;54998;42.656;23.382;2022-10-29T10:40:00;95773.16;;;31.59;18.10
68179;BME280;54998;42.656;23.382;2022-10-29T10:42:32;95776.06;;;31.08;18.63
68179;BME280;54998;42.656;23.382;2022-10-29T10:45:02;95777.78;;;31.69;18.08
68179;BME280;54998;42.656;23.382;2022-10-29T10:47:33;95767.53;;;30.28;19.45
68179;BME280;54998;42.656;23.382;2022-10-29T10:50:26;95756.84;;;32.00;18.10
68179;BME280;54998;42.656;23.382;2022-10-29T10:52:52;95759.59;;;31.83;18.20
68179;BME280;54998;42.656;23.382;2022-10-29T10:55:26;95756.44;;;31.86;17.58
68179;BME280;54998;42.656;23.382;2022-10-29T10:58:07;95753.44;;;30.62;19.37
68179;BME280;54998;42.656;23.382;2022-10-29T11:03:38;95747.09;;;31.51;17.86
68179;BME280;54998;42.656;23.382;2022-10-29T11:06:15;95740.00;;;31.89;18.02
68179;BME280;54998;42.656;23.382;2022-10-29T11:08:47;95735.09;;;31.21;18.61
68179;BME280;54998;42.656;23.382;2022-10-29T11:11:21;95738.78;;;31.20;18.39
68179;BME280;54998;42.656;23.382;2022-10-29T11:13:50;95731.69;;;30.60;19.32
68179;BME280;54998;42.656;23.382;2022-10-29T11:16:25;95728.75;;;30.56;19.33
68179;BME280;54998;42.656;23.382;2022-10-29T11:18:59;95727.47;;;31.52;18.08
68179;BME280;54998;42.656;23.382;2022-10-29T11:21:34;95712.97;;;32.77;17.10
68179;BME280;54998;42.656;23.382;2022-10-29T11:24:07;95713.56;;;33.05;16.62
68179;BME280;54998;42.656;23.382;2022-10-29T11:26:44;95701.03;;;32.80;16.86
68179;BME280;54998;42.656;23.382;2022-10-29T11:29:37;95696.69;;;32.16;17.38
68179;BME280;54998;42.656;23.382;2022-10-29T11:32:07;95702.63;;;32.33;17.55
68179;BME280;54998;42.656;23.382;2022-10-29T11:35:08;95691.94;;;31.26;18.40
68179;BME280;54998;42.656;23.382;2022-10-29T11:37:43;95695.34;;;32.13;17.34
68179;BME280;54998;42.656;23.382;2022-10-29T11:40:21;95685.31;;;31.28;17.91
68179;BME280;54998;42.656;23.382;2022-10-29T11:42:48;95679.50;;;29.20;20.03
68179;BME280;54998;42.656;23.382;2022-10-29T11:45:14;95687.34;;;26.77;22.01
68179;BME280;54998;42.656;23.382;2022-10-29T12:01:44;95667.50;;;22.26;28.61
68179;BME280;54998;42.656;23.382;2022-10-29T12:04:36;95667.63;;;21.40;29.54
68179;BME280;54998;42.656;23.382;2022-10-29T12:07:58;95661.63;;;21.61;29.38
68179;BME280;54998;42.656;23.382;2022-10-29T12:13:46;95656.06;;;20.84;30.23
68179;BME280;54998;42.656;23.382;2022-10-29T12:30:34;95630.06;;;21.12;30.08
68179;BME280;54998;42.656;23.382;2022-10-29T12:35:37;95629.13;;;20.62;30.35
68179;BME280;54998;42.656;23.382;2022-10-29T12:41:23;95629.59;;;20.36;29.96
68179;BME280;54998;42.656;23.382;2022-10-29T12:43:50;95630.84;;;20.40;30.35
68179;BME280;54998;42.656;23.382;2022-10-29T12:46:40;95622.78;;;21.08;29.76
68179;BME280;54998;42.656;23.382;2022-10-29T12:56:42;95619.03;;;22.91;26.46
68179;BME280;54998;42.656;23.382;2022-10-29T13:01:45;95613.25;;;22.34;26.91
68179;BME280;54998;42.656;23.382;2022-10-29T13:04:46;95608.09;;;21.50;28.38
68179;BME280;54998;42.656;23.382;2022-10-29T13:07:25;95615.59;;;21.60;28.11
68179;BME280;54998;42.656;23.382;2022-10-29T13:18:27;95596.63;;;20.80;29.66
68179;BME280;54998;42.656;23.382;2022-10-29T13:20:55;95589.41;;;20.60;30.11
68179;BME280;54998;42.656;23.382;2022-10-29T13:25:50;95584.25;;;20.67;30.49
68179;BME280;54998;42.656;23.382;2022-10-29T13:30:52;95577.75;;;20.26;30.43
68179;BME280;54998;42.656;23.382;2022-10-29T13:35:58;95580.75;;;20.45;30.47
68179;BME280;54998;42.656;23.382;2022-10-29T13:38:44;95579.78;;;20.46;30.56
68179;BME280;54998;42.656;23.382;2022-10-29T13:41:10;95575.84;;;20.35;30.99
68179;BME280;54998;42.656;23.382;2022-10-29T13:43:37;95582.66;;;20.36;30.50
68179;BME280;54998;42.656;23.382;2022-10-29T13:46:23;95574.44;;;20.33;30.73
68179;BME280;54998;42.656;23.382;2022-10-29T13:48:51;95578.28;;;20.37;31.69
68179;BME280;54998;42.656;23.382;2022-10-29T13:51:23;95572.38;;;20.13;31.43
68179;BME280;54998;42.656;23.382;2022-10-29T13:53:54;95571.66;;;20.19;31.73
68179;BME280;54998;42.656;23.382;2022-10-29T13:56:33;95568.69;;;20.22;31.01
68179;BME280;54998;42.656;23.382;2022-10-29T13:59:03;95565.91;;;20.09;30.65
68179;BME280;54998;42.656;23.382;2022-10-29T14:01:32;95574.91;;;19.92;31.07
68179;BME280;54998;42.656;23.382;2022-10-29T14:04:22;95571.22;;;20.01;30.98
68179;BME280;54998;42.656;23.382;2022-10-29T14:06:50;95561.19;;;19.98;31.09
68179;BME280;54998;42.656;23.382;2022-10-29T14:09:35;95558.66;;;19.89;31.54
68179;BME280;54998;42.656;23.382;2022-10-29T14:12:04;95564.97;;;19.80;31.54
68179;BME280;54998;42.656;23.382;2022-10-29T14:14:36;95561.81;;;19.70;31.79
68179;BME280;54998;42.656;23.382;2022-10-29T14:17:11;95554.22;;;19.60;31.66
68179;BME280;54998;42.656;23.382;2022-10-29T14:19:42;95560.16;;;19.54;31.75
68179;BME280;54998;42.656;23.382;2022-10-29T14:22:32;95555.94;;;19.53;31.19
68179;BME280;54998;42.656;23.382;2022-10-29T14:24:59;95554.22;;;19.45;31.54
68179;BME280;54998;42.656;23.382;2022-10-29T14:27:26;95551.97;;;19.42;31.56
68179;BME280;54998;42.656;23.382;2022-10-29T14:29:51;95550.69;;;19.38;31.32
68179;BME280;54998;42.656;23.382;2022-10-29T14:32:19;95549.91;;;19.38;31.23
68179;BME280;54998;42.656;23.382;2022-10-29T14:34:49;95549.00;;;19.31;31.34
68179;BME280;54998;42.656;23.382;2022-10-29T14:37:30;95549.19;;;19.44;30.94
68179;BME280;54998;42.656;23.382;2022-10-29T14:39:58;95557.59;;;19.31;30.94
68179;BME280;54998;42.656;23.382;2022-10-29T14:42:29;95553.03;;;19.33;30.63
68179;BME280;54998;42.656;23.382;2022-10-29T14:45:02;95558.94;;;19.27;30.68
68179;BME280;54998;42.656;23.382;2022-10-29T14:47:38;95562.53;;;19.26;30.93
68179;BME280;54998;42.656;23.382;2022-10-29T14:50:10;95557.25;;;19.19;31.15
68179;BME280;54998;42.656;23.382;2022-10-29T14:52:44;95553.25;;;19.08;31.25
68179;BME280;54998;42.656;23.382;2022-10-29T14:55:32;95556.25;;;18.97;31.42
68179;BME280;54998;42.656;23.382;2022-10-29T15:00:37;95556.72;;;18.78;32.43
68179;BME280;54998;42.656;23.382;2022-10-29T15:03:04;95555.16;;;18.68;32.68
68179;BME280;54998;42.656;23.382;2022-10-29T15:05:35;95555.31;;;18.67;33.79
68179;BME280;54998;42.656;23.382;2022-10-29T15:10:51;95552.28;;;18.32;32.78
68179;BME280;54998;42.656;23.382;2022-10-29T15:15:54;95553.41;;;18.06;34.65
68179;BME280;54998;42.656;23.382;2022-10-29T15:18:22;95556.53;;;17.94;34.22
68179;BME280;54998;42.656;23.382;2022-10-29T15:20:48;95563.38;;;17.86;34.23